Flight Track Log - Related Links

Times and Time Zones

All times are in EDT time to prevent confusion due to time zone crossing. See the JBU33 flight status page for this flight to view local times or setup timezone preferences in your user account.

Time Position Orientation Groundspeed Altitude Reporting Facility
EDT Latitude Longitude Course Direction KTS MPH feet Rate Location/Type
Thu 01:12:42 PM 44.3069 -73.1653 196° South 259 298 8,000  Level Boston Center
Thu 01:13:00 PM 44.1380 -73.2733 195° South  Level FlightAware
Thu 01:13:42 PM 44.2297 -73.1992 197° South 271 312 10,900  Level Boston Center
Thu 01:14:00 PM 44.0552 -73.3038 194° South  Level FlightAware
Thu 01:14:42 PM 44.1419 -73.2356 197° South 308 354 13,100  Level Boston Center
Thu 01:15:00 PM 43.9720 -73.3316 194° South  Level FlightAware
Thu 01:15:42 PM 44.0478 -73.2747 197° South 343 395 15,800  Level Boston Center
Thu 01:16:00 PM 43.8891 -73.3611 196° South  Level FlightAware
Thu 01:16:42 PM 43.9581 -73.3139 197° South 371 427 18,100  Level Boston Center
Thu 01:17:00 PM 43.8069 -73.3941 196° South  Level FlightAware
Thu 01:17:42 PM 43.8556 -73.3500 194° South 379 436 20,200  Level Boston Center
Thu 01:18:00 PM 43.7247 -73.4270 196° South  Level FlightAware
Thu 01:18:42 PM 43.7428 -73.3769 190° South 402 463 22,300  Level Boston Center
Thu 01:19:42 PM 43.6300 -73.4011 189° South 412 474 24,400 1,650 Climbing Boston Center
Thu 01:20:42 PM 43.5092 -73.4250 188° South 424 488 25,600 800 Climbing Boston Center
Thu 01:21:42 PM 43.3858 -73.4542 190° South 440 506 26,000 200 Climbing Boston Center
Thu 01:22:42 PM 43.2606 -73.4808 189° South 450 518 26,000  Level Boston Center
Thu 01:23:42 PM 43.1372 -73.5069 189° South 455 524 26,000  Level Boston Center
Thu 01:24:42 PM 43.0350 -73.5308 190° South 461 531 26,000  Level Boston Center
Thu 01:25:42 PM 42.8867 -73.5650 190° South 461 531 26,000  Level Boston Center
Thu 01:26:42 PM 42.7633 -73.5911 189° South 461 531 26,000  Level Boston Center
Thu 01:27:42 PM 42.6403 -73.6228 191° South 456 525 26,000  Level Boston Center
Thu 01:28:42 PM 42.5150 -73.6483 189° South 456 525 26,000  Level Boston Center
Thu 01:29:42 PM 42.3936 -73.6742 189° South 456 525 26,000  Level Boston Center
Thu 01:30:42 PM 42.2706 -73.6914 186° South 449 517 26,000  Level Boston Center
Thu 01:31:42 PM 42.1472 -73.7253 192° South 449 517 26,000  Level Boston Center
Thu 01:32:42 PM 42.0239 -73.7508 189° South 449 517 26,000  Level Boston Center
Thu 01:33:42 PM 41.9028 -73.7761 189° South 449 517 26,000  Level Boston Center
Thu 01:34:42 PM 41.7878 -73.8072 191° South 443 510 26,000 -100 Level Boston Center
Thu 01:35:42 PM 41.6806 -73.8744 205° Southwest 425 489 25,800 -1,581 Descending Boston Center
Thu 01:37:48 PM 41.4522 -74.0206 206° Southwest 418 481 21,100 -1,861 Descending New Center
Thu 01:38:49 PM 41.3508 -74.0683 199° South 400 460 20,000 -537 Descending New Center
Thu 01:39:51 PM 41.2422 -74.0850 187° South 395 455 20,000  Level New Center
Thu 01:40:48 PM 41.1439 -74.0994 186° South 385 443 20,000  Level New Center
Thu 01:41:50 PM 41.0497 -74.1167 188° South 359 413 20,000  Level New Center
Thu 01:42:21 PM 41.0000 -74.1167 180° South 346 398 20,000 -593 Level New TRACON
Thu 01:43:21 PM 40.9000 -74.0833 166° South 370 426 19,100 -500 Descending New TRACON
Thu 01:44:21 PM 40.8333 -73.9833 131° Southeast 370 426 19,000 -600 Descending New TRACON
Thu 01:45:21 PM 40.8000 -73.8667 111° Southeast 367 422 17,900 -1,300 Descending New TRACON
Thu 01:46:21 PM 40.7500 -73.7333 116° Southeast 382 440 16,400 -1,550 Descending New TRACON
Thu 01:47:21 PM 40.6667 -73.6833 156° South 370 426 14,800 -1,700 Descending New TRACON
Thu 01:48:21 PM 40.5833 -73.6500 163° South 335 386 13,000 -1,950 Descending New TRACON
Thu 01:49:21 PM 40.5000 -73.6500 180° South 302 348 10,900 -2,050 Descending New TRACON
Thu 01:50:21 PM 40.4167 -73.6500 180° South 290 334 8,900 -2,000 Descending New TRACON
Thu 01:51:21 PM 40.3333 -73.6667 189° South 276 318 6,900 -1,900 Descending New TRACON
Thu 01:52:21 PM 40.3167 -73.7667 258° West 271 312 5,100 -1,650 Descending New TRACON
Thu 01:53:21 PM 40.3500 -73.8500 298° West 260 299 3,600 -1,050 Descending New TRACON
Thu 01:54:21 PM 40.3833 -73.9333 298° West 259 298 3,000 -300 Descending New TRACON
Thu 01:55:21 PM 40.4500 -73.9667 339° North 223 257 3,000  Level New TRACON

Login

Don't have an account? Register now (free) for customized features, flight alerts, and more!